METAR Data
IDs: Format: Raw Decoded Include TAF

Data at: 0240 UTC 19 Oct 2021

RJFR 190200Z 16006KT 120V180 9999 FEW025 BKN120 21/12 Q1016